Time,TemperatureF,DewpointF,PressureIn,WindDirection,WindDirectionDegrees,WindSpeedMPH,WindSpeedGustMPH,Humidity,HourlyPrecipIn,Conditions,Clouds,dailyrainin,SoftwareType,DateUTC
2013-03-21 00:04:00,17.7,14.2,29.96,NW,311,4.0,6.0,86,0.00,,,0.00,Wunderground v.1.15,2013-03-21 05:04:00,
2013-03-21 00:35:00,18.1,8.6,29.96,North,353,4.0,6.0,66,0.00,,,0.00,Wunderground v.1.15,2013-03-21 05:35:00,
2013-03-21 01:05:00,18.6,7.0,29.95,NW,311,5.0,5.0,60,0.00,,,0.00,Wunderground v.1.15,2013-03-21 06:05:00,
2013-03-21 01:35:00,18.4,7.2,29.95,NW,309,4.0,5.0,61,0.00,,,0.00,Wunderground v.1.15,2013-03-21 06:35:00,
2013-03-21 02:05:00,18.0,7.2,29.95,West,271,6.0,7.0,62,0.00,,,0.00,Wunderground v.1.15,2013-03-21 07:05:00,
2013-03-21 02:35:00,17.5,7.0,29.95,WNW,294,4.0,5.0,63,0.00,,,0.00,Wunderground v.1.15,2013-03-21 07:35:00,
2013-03-21 03:05:00,16.9,6.1,29.94,WNW,282,4.0,4.0,62,0.00,,,0.00,Wunderground v.1.15,2013-03-21 08:05:00,
2013-03-21 03:35:00,16.1,5.4,29.94,WNW,284,5.0,5.0,62,0.00,,,0.00,Wunderground v.1.15,2013-03-21 08:35:00,
2013-03-21 04:05:00,15.6,5.6,29.94,WNW,301,6.0,6.0,64,0.00,,,0.00,Wunderground v.1.15,2013-03-21 09:05:00,
2013-03-21 04:35:00,15.7,5.7,29.94,West,271,6.0,6.0,64,0.00,,,0.00,Wunderground v.1.15,2013-03-21 09:35:00,
2013-03-21 05:05:00,14.4,-99.9,29.94,West,260,3.0,3.0,255,0.00,,,0.00,Wunderground v.1.15,2013-03-21 10:05:00,
2013-03-21 05:35:00,13.8,5.5,29.90,West,267,3.0,3.0,69,0.00,,,0.00,Wunderground v.1.15,2013-03-21 10:35:00,
2013-03-21 06:05:00,13.8,5.8,29.95,WNW,284,4.0,4.0,70,0.00,,,0.00,Wunderground v.1.15,2013-03-21 11:05:00,
2013-03-21 06:35:00,13.8,5.8,29.95,West,280,5.0,5.0,70,0.00,,,0.00,Wunderground v.1.15,2013-03-21 11:35:00,
2013-03-21 07:05:00,13.6,5.9,29.96,WNW,289,4.0,6.0,71,0.00,,,0.00,Wunderground v.1.15,2013-03-21 12:05:00,
2013-03-21 07:35:00,14.1,6.7,29.96,WNW,298,5.0,5.0,72,0.00,,,0.00,Wunderground v.1.15,2013-03-21 12:35:00,
2013-03-21 08:05:00,15.6,7.2,29.96,NW,305,5.0,5.0,69,0.00,,,0.00,Wunderground v.1.15,2013-03-21 13:05:00,
2013-03-21 08:35:00,16.9,8.5,29.96,WNW,288,6.0,6.0,69,0.00,,,0.00,Wunderground v.1.15,2013-03-21 13:35:00,
2013-03-21 09:05:00,18.3,9.5,29.97,WNW,288,5.0,5.0,68,0.00,,,0.00,Wunderground v.1.15,2013-03-21 14:05:00,
2013-03-21 09:35:00,20.0,10.5,29.97,NNW,332,7.0,7.0,66,0.00,,,0.00,Wunderground v.1.15,2013-03-21 14:35:00,
2013-03-21 10:05:00,21.8,10.0,29.97,West,264,7.0,7.0,60,0.00,,,0.00,Wunderground v.1.15,2013-03-21 15:05:00,
2013-03-21 10:35:00,23.5,11.3,29.98,WNW,285,7.0,10.0,59,0.00,,,0.00,Wunderground v.1.15,2013-03-21 15:35:00,
2013-03-21 11:04:00,24.7,12.4,29.98,West,260,7.0,7.0,59,0.00,,,0.00,Wunderground v.1.15,2013-03-21 16:04:00,
2013-03-21 11:35:00,26.3,11.0,29.97,WNW,298,4.0,4.0,52,0.00,,,0.00,Wunderground v.1.15,2013-03-21 16:35:00,
2013-03-21 12:05:00,27.8,11.1,29.97,North,0,6.0,6.0,49,0.00,,,0.00,Wunderground v.1.15,2013-03-21 17:05:00,
2013-03-21 12:35:00,28.5,10.3,29.97,WNW,299,5.0,5.0,46,0.00,,,0.00,Wunderground v.1.15,2013-03-21 17:35:00,
2013-03-21 13:05:00,30.4,11.6,29.97,NW,305,6.0,6.0,45,0.00,,,0.00,Wunderground v.1.15,2013-03-21 18:05:00,
2013-03-21 13:35:00,32.1,12.6,29.96,NNW,346,3.0,3.0,44,0.00,,,0.00,Wunderground v.1.15,2013-03-21 18:35:00,
2013-03-21 14:05:00,32.2,11.6,29.95,NW,323,6.0,6.0,42,0.00,,,0.00,Wunderground v.1.15,2013-03-21 19:05:00,
2013-03-21 14:35:00,33.5,13.4,29.94,West,260,4.0,6.0,43,0.00,,,0.00,Wunderground v.1.15,2013-03-21 19:35:00,
2013-03-21 15:05:00,32.9,13.9,29.93,NW,320,5.0,6.0,45,0.00,,,0.00,Wunderground v.1.15,2013-03-21 20:05:00,
2013-03-21 15:35:00,32.8,14.8,29.93,North,349,5.0,6.0,47,0.00,,,0.00,Wunderground v.1.15,2013-03-21 20:35:00,
2013-03-21 16:05:00,33.4,14.8,29.93,NW,325,6.0,6.0,46,0.00,,,0.00,Wunderground v.1.15,2013-03-21 21:05:00,
2013-03-21 16:35:00,32.8,16.2,29.93,NNE,20,8.0,10.0,50,0.00,,,0.00,Wunderground v.1.15,2013-03-21 21:35:00,
2013-03-21 17:05:00,32.2,15.2,29.93,North,6,5.0,8.0,49,0.00,,,0.00,Wunderground v.1.15,2013-03-21 22:05:00,
2013-03-21 17:35:00,31.8,15.7,29.93,North,4,5.0,11.0,51,0.00,,,0.00,Wunderground v.1.15,2013-03-21 22:35:00,
2013-03-21 18:05:00,32.2,16.5,29.94,North,0,4.0,4.0,52,0.00,,,0.00,Wunderground v.1.15,2013-03-21 23:05:00,
2013-03-21 18:35:00,30.9,16.6,29.94,North,1,2.0,5.0,55,0.00,,,0.00,Wunderground v.1.15,2013-03-21 23:35:00,
2013-03-21 19:05:00,28.4,16.3,29.94,North,0,3.0,3.0,60,0.00,,,0.00,Wunderground v.1.15,2013-03-22 00:05:00,
2013-03-21 19:35:00,27.2,16.3,29.94,North,357,1.0,1.0,63,0.00,,,0.00,Wunderground v.1.15,2013-03-22 00:35:00,
2013-03-21 20:05:00,26.4,16.2,29.94,North,3,0.0,0.0,65,0.00,,,0.00,Wunderground v.1.15,2013-03-22 01:05:00,
2013-03-21 20:35:00,25.6,16.2,29.95,North,3,0.0,0.0,67,0.00,,,0.00,Wunderground v.1.15,2013-03-22 01:35:00,
2013-03-21 21:05:00,25.1,16.4,29.96,North,3,0.0,0.0,69,0.00,,,0.00,Wunderground v.1.15,2013-03-22 02:05:00,
2013-03-21 21:35:00,23.6,16.2,29.97,North,3,0.0,0.0,73,0.00,,,0.00,Wunderground v.1.15,2013-03-22 02:35:00,
2013-03-21 22:05:00,22.7,16.6,29.97,North,6,0.0,0.0,77,0.00,,,0.00,Wunderground v.1.15,2013-03-22 03:05:00,
2013-03-21 22:35:00,22.4,16.6,29.98,North,3,0.0,0.0,78,0.00,,,0.00,Wunderground v.1.15,2013-03-22 03:35:00,
2013-03-21 23:05:00,22.4,16.9,29.97,North,3,0.0,0.0,79,0.00,,,0.00,Wunderground v.1.15,2013-03-22 04:05:00,
2013-03-21 23:35:00,21.9,16.1,29.97,North,4,0.0,0.0,78,0.00,,,0.00,Wunderground v.1.15,2013-03-22 04:35:00,